UAL2791 KLAX-KSFO
Flight info
| Callsign | UAL2791 |
|---|---|
| Flight time | N/A |
| Altitude | 36000 |
| Route | SUMMR2 STOKD SERFR SERFR4 |
| Aircraft | A320/M-SDE3FGHIRWY/LB1 |
Departure
| Time | 2026-04-24 05:40 |
|---|---|
| Airport | Los Angeles International Airport (KLAX) |
Arrival
| Time | N/A |
|---|---|
| Airport | San Francisco International Airport (KSFO) |
| Time | Latitude | Longitude | Altitude | Speed | Heading |
|---|---|---|---|---|---|
| 2026-04-24 05:19 | 33.94144 | -118.40144 | 126 ft | 0 kts | 275° |
| 2026-04-24 05:31 | 33.94142 | -118.40120 | 121 ft | 4 kts | 265° |
| 2026-04-24 05:31 | 33.94150 | -118.40092 | 121 ft | 4 kts | 210° |
| 2026-04-24 05:31 | 33.94165 | -118.40087 | 123 ft | 1 kts | 174° |
| 2026-04-24 05:32 | 33.94167 | -118.40088 | 123 ft | 0 kts | 174° |
| 2026-04-24 05:35 | 33.94161 | -118.40087 | 122 ft | 2 kts | 174° |
| 2026-04-24 05:35 | 33.94132 | -118.40083 | 123 ft | 6 kts | 174° |
| 2026-04-24 05:36 | 33.94077 | -118.40075 | 124 ft | 10 kts | 172° |
| 2026-04-24 05:36 | 33.93992 | -118.40062 | 124 ft | 14 kts | 173° |
| 2026-04-24 05:36 | 33.93906 | -118.40036 | 123 ft | 13 kts | 145° |
| 2026-04-24 05:36 | 33.93886 | -118.39926 | 126 ft | 15 kts | 82° |
| 2026-04-24 05:37 | 33.93900 | -118.39789 | 124 ft | 18 kts | 83° |
| 2026-04-24 05:37 | 33.93915 | -118.39627 | 126 ft | 21 kts | 82° |
| 2026-04-24 05:37 | 33.93935 | -118.39442 | 124 ft | 24 kts | 83° |
| 2026-04-24 05:37 | 33.93957 | -118.39234 | 122 ft | 26 kts | 83° |
| 2026-04-24 05:38 | 33.93980 | -118.39004 | 126 ft | 29 kts | 83° |
| 2026-04-24 05:38 | 33.94006 | -118.38752 | 126 ft | 31 kts | 83° |
| 2026-04-24 05:38 | 33.94032 | -118.38495 | 126 ft | 29 kts | 83° |
| 2026-04-24 05:38 | 33.94055 | -118.38263 | 123 ft | 28 kts | 83° |
| 2026-04-24 05:39 | 33.94076 | -118.38053 | 126 ft | 17 kts | 85° |
| 2026-04-24 05:39 | 33.94025 | -118.37993 | 122 ft | 11 kts | 182° |
| 2026-04-24 05:39 | 33.93982 | -118.38064 | 123 ft | 13 kts | 266° |
| 2026-04-24 05:39 | 33.93961 | -118.38262 | 124 ft | 53 kts | 263° |
| 2026-04-24 05:40 | 33.93886 | -118.38994 | 124 ft | 119 kts | 263° |
| 2026-04-24 05:40 | 33.93756 | -118.40175 | 235 ft | 157 kts | 262° |
| 2026-04-24 05:40 | 33.93624 | -118.41515 | 840 ft | 162 kts | 262° |
| 2026-04-24 05:40 | 33.93486 | -118.42854 | 1576 ft | 161 kts | 263° |
| 2026-04-24 05:41 | 33.93350 | -118.44212 | 2115 ft | 171 kts | 264° |
| 2026-04-24 05:41 | 33.93200 | -118.45728 | 2445 ft | 193 kts | 264° |
| 2026-04-24 05:41 | 33.93044 | -118.47436 | 2760 ft | 218 kts | 264° |
| 2026-04-24 05:41 | 33.92884 | -118.49355 | 3193 ft | 243 kts | 264° |
| 2026-04-24 05:42 | 33.92715 | -118.51430 | 3829 ft | 259 kts | 264° |
| 2026-04-24 05:42 | 33.92539 | -118.53618 | 4773 ft | 265 kts | 264° |
| 2026-04-24 05:42 | 33.92356 | -118.55847 | 5702 ft | 270 kts | 264° |
| 2026-04-24 05:42 | 33.92169 | -118.58122 | 6599 ft | 276 kts | 264° |
| 2026-04-24 05:43 | 33.91975 | -118.60439 | 7503 ft | 279 kts | 264° |
| 2026-04-24 05:43 | 33.91787 | -118.62768 | 8464 ft | 281 kts | 266° |
| 2026-04-24 05:43 | 33.91767 | -118.65127 | 9414 ft | 282 kts | 270° |
| 2026-04-24 05:43 | 33.91763 | -118.67497 | 10288 ft | 286 kts | 270° |
| 2026-04-24 05:44 | 33.91757 | -118.69991 | 10620 ft | 308 kts | 270° |
| 2026-04-24 05:44 | 33.91748 | -118.72609 | 11234 ft | 316 kts | 270° |
| 2026-04-24 05:44 | 33.91737 | -118.75273 | 11810 ft | 320 kts | 270° |
| 2026-04-24 05:44 | 33.91724 | -118.77949 | 11962 ft | 319 kts | 270° |
| 2026-04-24 05:45 | 33.91710 | -118.80615 | 11993 ft | 318 kts | 270° |
| 2026-04-24 05:45 | 33.91697 | -118.83283 | 11994 ft | 318 kts | 270° |
| 2026-04-24 05:45 | 33.91728 | -118.85967 | 12504 ft | 322 kts | 271° |
| 2026-04-24 05:45 | 33.91806 | -118.88664 | 13388 ft | 323 kts | 272° |
| 2026-04-24 05:46 | 33.91900 | -118.91368 | 14185 ft | 324 kts | 272° |
| 2026-04-24 05:46 | 33.91996 | -118.94085 | 14914 ft | 325 kts | 272° |
| 2026-04-24 05:46 | 33.92089 | -118.96816 | 15611 ft | 328 kts | 272° |
| 2026-04-24 05:46 | 33.92224 | -118.99563 | 16308 ft | 330 kts | 277° |
| 2026-04-24 05:47 | 33.92778 | -119.02255 | 16993 ft | 334 kts | 289° |
| 2026-04-24 05:47 | 33.93833 | -119.04768 | 17683 ft | 340 kts | 299° |
| 2026-04-24 05:47 | 33.95081 | -119.07155 | 18364 ft | 343 kts | 299° |
| 2026-04-24 05:47 | 33.96349 | -119.09599 | 18968 ft | 345 kts | 298° |